sensor_id;sensor_type;location;lat;lon;timestamp;temperature;humidity
41318;DHT22;27067;51.554;7.026;2023-04-15T00:02:16;16.40;90.60
41318;DHT22;27067;51.554;7.026;2023-04-15T00:04:46;16.50;90.60
41318;DHT22;27067;51.554;7.026;2023-04-15T00:07:12;16.40;90.90
41318;DHT22;27067;51.554;7.026;2023-04-15T00:09:42;16.40;90.60
41318;DHT22;27067;51.554;7.026;2023-04-15T00:12:10;16.40;90.60
41318;DHT22;27067;51.554;7.026;2023-04-15T00:14:36;16.40;90.60
41318;DHT22;27067;51.554;7.026;2023-04-15T00:17:02;16.50;90.60
41318;DHT22;27067;51.554;7.026;2023-04-15T00:19:29;16.40;90.80
41318;DHT22;27067;51.554;7.026;2023-04-15T00:21:55;16.50;91.00
41318;DHT22;27067;51.554;7.026;2023-04-15T00:24:22;16.40;91.00
41318;DHT22;27067;51.554;7.026;2023-04-15T00:26:48;16.40;91.00
41318;DHT22;27067;51.554;7.026;2023-04-15T00:29:13;16.40;91.00
41318;DHT22;27067;51.554;7.026;2023-04-15T00:31:39;16.40;91.00
41318;DHT22;27067;51.554;7.026;2023-04-15T00:34:06;16.40;91.00
41318;DHT22;27067;51.554;7.026;2023-04-15T00:36:32;16.50;91.10
41318;DHT22;27067;51.554;7.026;2023-04-15T00:38:59;16.40;91.00
41318;DHT22;27067;51.554;7.026;2023-04-15T00:41:25;16.50;91.10
41318;DHT22;27067;51.554;7.026;2023-04-15T00:43:51;16.50;91.00
41318;DHT22;27067;51.554;7.026;2023-04-15T00:46:18;16.40;91.00
41318;DHT22;27067;51.554;7.026;2023-04-15T00:48:46;16.50;91.00
41318;DHT22;27067;51.554;7.026;2023-04-15T00:51:12;16.40;91.00
41318;DHT22;27067;51.554;7.026;2023-04-15T00:53:39;16.40;91.00
41318;DHT22;27067;51.554;7.026;2023-04-15T00:56:05;16.40;90.90
41318;DHT22;27067;51.554;7.026;2023-04-15T00:58:31;16.40;90.90
41318;DHT22;27067;51.554;7.026;2023-04-15T01:00:57;16.40;90.90
41318;DHT22;27067;51.554;7.026;2023-04-15T01:03:24;16.40;90.90
41318;DHT22;27067;51.554;7.026;2023-04-15T01:05:50;16.40;90.90
41318;DHT22;27067;51.554;7.026;2023-04-15T01:08:26;16.40;90.90
41318;DHT22;27067;51.554;7.026;2023-04-15T01:10:54;16.40;90.80
41318;DHT22;27067;51.554;7.026;2023-04-15T01:13:22;16.40;90.80
41318;DHT22;27067;51.554;7.026;2023-04-15T01:15:48;16.40;90.80
41318;DHT22;27067;51.554;7.026;2023-04-15T01:18:15;16.40;91.00
41318;DHT22;27067;51.554;7.026;2023-04-15T01:20:40;16.40;90.70
41318;DHT22;27067;51.554;7.026;2023-04-15T01:23:06;16.40;90.70
41318;DHT22;27067;51.554;7.026;2023-04-15T01:25:38;16.40;90.70
41318;DHT22;27067;51.554;7.026;2023-04-15T01:28:25;16.40;90.70
41318;DHT22;27067;51.554;7.026;2023-04-15T01:31:08;16.40;90.70
41318;DHT22;27067;51.554;7.026;2023-04-15T01:33:34;16.40;90.70
41318;DHT22;27067;51.554;7.026;2023-04-15T01:36:00;16.40;90.70
41318;DHT22;27067;51.554;7.026;2023-04-15T01:38:26;16.40;90.60
41318;DHT22;27067;51.554;7.026;2023-04-15T01:40:52;16.40;90.70
41318;DHT22;27067;51.554;7.026;2023-04-15T01:43:18;16.40;90.60
41318;DHT22;27067;51.554;7.026;2023-04-15T01:45:44;16.40;90.70
41318;DHT22;27067;51.554;7.026;2023-04-15T01:48:10;16.40;90.80
41318;DHT22;27067;51.554;7.026;2023-04-15T01:50:36;16.40;90.80
41318;DHT22;27067;51.554;7.026;2023-04-15T01:53:03;16.40;90.80
41318;DHT22;27067;51.554;7.026;2023-04-15T01:55:29;16.40;90.80
41318;DHT22;27067;51.554;7.026;2023-04-15T01:57:55;16.20;90.70
41318;DHT22;27067;51.554;7.026;2023-04-15T02:00:21;16.40;90.80
41318;DHT22;27067;51.554;7.026;2023-04-15T02:02:48;16.40;90.80
41318;DHT22;27067;51.554;7.026;2023-04-15T02:05:14;16.40;90.80
41318;DHT22;27067;51.554;7.026;2023-04-15T02:07:41;16.40;90.70
41318;DHT22;27067;51.554;7.026;2023-04-15T02:10:08;16.40;90.70
41318;DHT22;27067;51.554;7.026;2023-04-15T02:12:34;16.40;90.70
41318;DHT22;27067;51.554;7.026;2023-04-15T02:15:01;16.40;90.70
41318;DHT22;27067;51.554;7.026;2023-04-15T02:17:26;16.40;90.70
41318;DHT22;27067;51.554;7.026;2023-04-15T02:19:52;16.40;90.70
41318;DHT22;27067;51.554;7.026;2023-04-15T02:22:21;16.40;90.70
41318;DHT22;27067;51.554;7.026;2023-04-15T02:24:46;16.40;90.70
41318;DHT22;27067;51.554;7.026;2023-04-15T02:27:16;16.40;90.70
41318;DHT22;27067;51.554;7.026;2023-04-15T02:29:45;16.40;90.70
41318;DHT22;27067;51.554;7.026;2023-04-15T02:32:11;16.40;90.60
41318;DHT22;27067;51.554;7.026;2023-04-15T02:34:39;16.30;90.60
41318;DHT22;27067;51.554;7.026;2023-04-15T02:37:10;16.40;90.60
41318;DHT22;27067;51.554;7.026;2023-04-15T02:39:36;16.40;90.60
41318;DHT22;27067;51.554;7.026;2023-04-15T02:42:02;16.40;90.60
41318;DHT22;27067;51.554;7.026;2023-04-15T02:44:29;16.40;90.60
41318;DHT22;27067;51.554;7.026;2023-04-15T02:46:56;16.40;90.60
41318;DHT22;27067;51.554;7.026;2023-04-15T02:49:23;16.40;90.60
41318;DHT22;27067;51.554;7.026;2023-04-15T02:51:49;16.40;90.70
41318;DHT22;27067;51.554;7.026;2023-04-15T02:54:19;16.40;90.80
41318;DHT22;27067;51.554;7.026;2023-04-15T02:56:45;16.30;90.80
41318;DHT22;27067;51.554;7.026;2023-04-15T02:59:14;16.40;90.90
41318;DHT22;27067;51.554;7.026;2023-04-15T03:01:40;16.30;90.90
41318;DHT22;27067;51.554;7.026;2023-04-15T03:04:05;16.30;90.90
41318;DHT22;27067;51.554;7.026;2023-04-15T03:06:33;16.30;90.90
41318;DHT22;27067;51.554;7.026;2023-04-15T03:08:59;16.40;90.90
41318;DHT22;27067;51.554;7.026;2023-04-15T03:11:27;16.40;90.90
41318;DHT22;27067;51.554;7.026;2023-04-15T03:13:53;16.40;90.90
41318;DHT22;27067;51.554;7.026;2023-04-15T03:16:19;16.30;90.80
41318;DHT22;27067;51.554;7.026;2023-04-15T03:18:45;16.30;90.80
41318;DHT22;27067;51.554;7.026;2023-04-15T03:21:11;16.40;90.80
41318;DHT22;27067;51.554;7.026;2023-04-15T03:23:36;16.30;90.80
41318;DHT22;27067;51.554;7.026;2023-04-15T03:26:03;16.30;90.80
41318;DHT22;27067;51.554;7.026;2023-04-15T03:28:29;16.30;90.80
41318;DHT22;27067;51.554;7.026;2023-04-15T03:30:55;16.30;90.80
41318;DHT22;27067;51.554;7.026;2023-04-15T03:33:21;16.30;90.80
41318;DHT22;27067;51.554;7.026;2023-04-15T03:35:47;16.30;90.80
41318;DHT22;27067;51.554;7.026;2023-04-15T03:38:12;16.30;90.70
41318;DHT22;27067;51.554;7.026;2023-04-15T03:40:40;16.30;90.70
41318;DHT22;27067;51.554;7.026;2023-04-15T03:43:06;16.30;90.70
41318;DHT22;27067;51.554;7.026;2023-04-15T03:45:31;16.30;90.70
41318;DHT22;27067;51.554;7.026;2023-04-15T03:47:57;16.40;90.70
41318;DHT22;27067;51.554;7.026;2023-04-15T03:50:23;16.30;90.60
41318;DHT22;27067;51.554;7.026;2023-04-15T03:52:48;16.30;90.60
41318;DHT22;27067;51.554;7.026;2023-04-15T03:55:14;16.30;90.60
41318;DHT22;27067;51.554;7.026;2023-04-15T03:57:40;16.30;90.60
41318;DHT22;27067;51.554;7.026;2023-04-15T04:00:07;16.30;90.80
41318;DHT22;27067;51.554;7.026;2023-04-15T04:02:36;16.30;90.90
41318;DHT22;27067;51.554;7.026;2023-04-15T04:05:02;16.30;90.80
41318;DHT22;27067;51.554;7.026;2023-04-15T04:07:28;16.30;90.70
41318;DHT22;27067;51.554;7.026;2023-04-15T04:09:56;16.30;90.70
41318;DHT22;27067;51.554;7.026;2023-04-15T04:12:22;16.30;90.60
41318;DHT22;27067;51.554;7.026;2023-04-15T04:14:47;16.30;90.60
41318;DHT22;27067;51.554;7.026;2023-04-15T04:17:13;16.30;90.50
41318;DHT22;27067;51.554;7.026;2023-04-15T04:19:39;16.30;90.40
41318;DHT22;27067;51.554;7.026;2023-04-15T04:22:04;16.30;90.30
41318;DHT22;27067;51.554;7.026;2023-04-15T04:24:30;16.30;90.20
41318;DHT22;27067;51.554;7.026;2023-04-15T04:26:56;16.30;90.20
41318;DHT22;27067;51.554;7.026;2023-04-15T04:29:22;16.30;90.10
41318;DHT22;27067;51.554;7.026;2023-04-15T04:31:48;16.30;90.10
41318;DHT22;27067;51.554;7.026;2023-04-15T04:34:14;16.30;90.10
41318;DHT22;27067;51.554;7.026;2023-04-15T04:36:40;16.30;90.00
41318;DHT22;27067;51.554;7.026;2023-04-15T04:39:06;16.30;90.10
41318;DHT22;27067;51.554;7.026;2023-04-15T04:41:32;16.30;90.10
41318;DHT22;27067;51.554;7.026;2023-04-15T04:43:58;16.30;90.10
41318;DHT22;27067;51.554;7.026;2023-04-15T04:46:24;16.30;90.20
41318;DHT22;27067;51.554;7.026;2023-04-15T04:48:50;16.40;90.20
41318;DHT22;27067;51.554;7.026;2023-04-15T04:51:15;16.40;90.20
41318;DHT22;27067;51.554;7.026;2023-04-15T04:53:42;16.50;90.10
41318;DHT22;27067;51.554;7.026;2023-04-15T04:56:08;16.50;90.00
41318;DHT22;27067;51.554;7.026;2023-04-15T04:58:33;16.60;89.90
41318;DHT22;27067;51.554;7.026;2023-04-15T05:00:59;16.60;89.60
41318;DHT22;27067;51.554;7.026;2023-04-15T05:03:25;16.60;89.40
41318;DHT22;27067;51.554;7.026;2023-04-15T05:05:51;16.60;89.30
41318;DHT22;27067;51.554;7.026;2023-04-15T05:08:17;16.60;89.10
41318;DHT22;27067;51.554;7.026;2023-04-15T05:10:43;16.60;88.90
41318;DHT22;27067;51.554;7.026;2023-04-15T05:13:08;16.60;88.70
41318;DHT22;27067;51.554;7.026;2023-04-15T05:15:34;16.60;88.60
41318;DHT22;27067;51.554;7.026;2023-04-15T05:18:01;16.60;88.40
41318;DHT22;27067;51.554;7.026;2023-04-15T05:20:27;16.60;88.30
41318;DHT22;27067;51.554;7.026;2023-04-15T05:22:53;16.60;88.20
41318;DHT22;27067;51.554;7.026;2023-04-15T05:25:18;16.60;88.10
41318;DHT22;27067;51.554;7.026;2023-04-15T05:27:44;16.60;88.00
41318;DHT22;27067;51.554;7.026;2023-04-15T05:30:10;16.60;88.00
41318;DHT22;27067;51.554;7.026;2023-04-15T05:32:36;16.50;87.90
41318;DHT22;27067;51.554;7.026;2023-04-15T05:35:02;16.50;87.90
41318;DHT22;27067;51.554;7.026;2023-04-15T05:37:28;16.60;88.00
41318;DHT22;27067;51.554;7.026;2023-04-15T05:39:53;16.50;87.90
41318;DHT22;27067;51.554;7.026;2023-04-15T05:42:19;16.50;87.80
41318;DHT22;27067;51.554;7.026;2023-04-15T05:44:44;16.50;87.70
41318;DHT22;27067;51.554;7.026;2023-04-15T05:47:10;16.60;87.70
41318;DHT22;27067;51.554;7.026;2023-04-15T05:49:36;16.60;87.90
41318;DHT22;27067;51.554;7.026;2023-04-15T05:52:02;16.50;87.80
41318;DHT22;27067;51.554;7.026;2023-04-15T05:54:28;16.50;87.90
41318;DHT22;27067;51.554;7.026;2023-04-15T05:56:53;16.50;88.00
41318;DHT22;27067;51.554;7.026;2023-04-15T05:59:19;16.50;88.20
41318;DHT22;27067;51.554;7.026;2023-04-15T06:01:45;16.50;88.40
41318;DHT22;27067;51.554;7.026;2023-04-15T06:04:10;16.40;88.40
41318;DHT22;27067;51.554;7.026;2023-04-15T06:06:37;16.40;88.60
41318;DHT22;27067;51.554;7.026;2023-04-15T06:09:03;16.40;88.60
41318;DHT22;27067;51.554;7.026;2023-04-15T06:11:29;16.40;88.70
41318;DHT22;27067;51.554;7.026;2023-04-15T06:13:55;16.40;88.80
41318;DHT22;27067;51.554;7.026;2023-04-15T06:16:21;16.30;88.90
41318;DHT22;27067;51.554;7.026;2023-04-15T06:18:47;16.30;88.90
41318;DHT22;27067;51.554;7.026;2023-04-15T06:21:14;16.30;89.10
41318;DHT22;27067;51.554;7.026;2023-04-15T06:23:40;16.20;89.40
41318;DHT22;27067;51.554;7.026;2023-04-15T06:26:06;16.30;90.10
41318;DHT22;27067;51.554;7.026;2023-04-15T06:28:32;16.30;89.90
41318;DHT22;27067;51.554;7.026;2023-04-15T06:30:57;16.20;90.00
41318;DHT22;27067;51.554;7.026;2023-04-15T06:33:23;16.30;90.10
41318;DHT22;27067;51.554;7.026;2023-04-15T06:35:49;16.30;90.10
41318;DHT22;27067;51.554;7.026;2023-04-15T06:38:15;16.30;90.10
41318;DHT22;27067;51.554;7.026;2023-04-15T06:40:41;16.40;90.10
41318;DHT22;27067;51.554;7.026;2023-04-15T06:43:07;16.40;90.10
41318;DHT22;27067;51.554;7.026;2023-04-15T06:45:33;16.40;90.10
41318;DHT22;27067;51.554;7.026;2023-04-15T06:47:59;16.40;90.00
41318;DHT22;27067;51.554;7.026;2023-04-15T06:50:25;16.40;90.00
41318;DHT22;27067;51.554;7.026;2023-04-15T06:52:51;16.40;90.00
41318;DHT22;27067;51.554;7.026;2023-04-15T06:55:16;16.40;90.00
41318;DHT22;27067;51.554;7.026;2023-04-15T06:57:42;16.40;90.00
41318;DHT22;27067;51.554;7.026;2023-04-15T07:00:08;16.40;90.00
41318;DHT22;27067;51.554;7.026;2023-04-15T07:02:36;16.40;90.00
41318;DHT22;27067;51.554;7.026;2023-04-15T07:05:02;16.40;90.00
41318;DHT22;27067;51.554;7.026;2023-04-15T07:07:29;16.40;90.00
41318;DHT22;27067;51.554;7.026;2023-04-15T07:09:54;16.30;90.20
41318;DHT22;27067;51.554;7.026;2023-04-15T07:12:20;16.40;90.00
41318;DHT22;27067;51.554;7.026;2023-04-15T07:14:46;16.30;90.00
41318;DHT22;27067;51.554;7.026;2023-04-15T07:17:12;16.30;90.00
41318;DHT22;27067;51.554;7.026;2023-04-15T07:19:37;16.30;90.00
41318;DHT22;27067;51.554;7.026;2023-04-15T07:22:03;16.30;90.10
41318;DHT22;27067;51.554;7.026;2023-04-15T07:24:29;16.30;90.10
41318;DHT22;27067;51.554;7.026;2023-04-15T07:26:55;16.30;90.10
41318;DHT22;27067;51.554;7.026;2023-04-15T07:29:24;16.20;90.10
41318;DHT22;27067;51.554;7.026;2023-04-15T07:31:50;16.30;90.10
41318;DHT22;27067;51.554;7.026;2023-04-15T07:34:16;16.30;90.10
41318;DHT22;27067;51.554;7.026;2023-04-15T07:36:42;16.30;90.10
41318;DHT22;27067;51.554;7.026;2023-04-15T07:39:07;16.30;90.20
41318;DHT22;27067;51.554;7.026;2023-04-15T07:41:33;16.20;90.10
41318;DHT22;27067;51.554;7.026;2023-04-15T07:43:59;16.20;90.20
41318;DHT22;27067;51.554;7.026;2023-04-15T07:46:25;16.20;90.20
41318;DHT22;27067;51.554;7.026;2023-04-15T07:48:52;16.20;90.20
41318;DHT22;27067;51.554;7.026;2023-04-15T07:51:18;16.20;90.50
41318;DHT22;27067;51.554;7.026;2023-04-15T07:53:45;16.20;90.30
41318;DHT22;27067;51.554;7.026;2023-04-15T07:56:11;16.10;90.20
41318;DHT22;27067;51.554;7.026;2023-04-15T07:58:37;16.10;90.30
41318;DHT22;27067;51.554;7.026;2023-04-15T08:01:03;16.10;90.30
41318;DHT22;27067;51.554;7.026;2023-04-15T08:03:29;16.10;90.40
41318;DHT22;27067;51.554;7.026;2023-04-15T08:05:55;16.10;90.50
41318;DHT22;27067;51.554;7.026;2023-04-15T08:08:21;16.10;90.50
41318;DHT22;27067;51.554;7.026;2023-04-15T08:10:47;16.10;90.60
41318;DHT22;27067;51.554;7.026;2023-04-15T08:13:13;16.10;90.60
41318;DHT22;27067;51.554;7.026;2023-04-15T08:15:38;16.20;90.50
41318;DHT22;27067;51.554;7.026;2023-04-15T08:18:04;16.20;90.50
41318;DHT22;27067;51.554;7.026;2023-04-15T08:20:30;16.20;90.50
41318;DHT22;27067;51.554;7.026;2023-04-15T08:22:56;16.30;90.50
41318;DHT22;27067;51.554;7.026;2023-04-15T08:25:22;16.30;90.40
41318;DHT22;27067;51.554;7.026;2023-04-15T08:27:48;16.30;90.40
41318;DHT22;27067;51.554;7.026;2023-04-15T08:30:14;16.30;90.30
41318;DHT22;27067;51.554;7.026;2023-04-15T08:32:41;16.30;90.30
41318;DHT22;27067;51.554;7.026;2023-04-15T08:35:10;16.30;90.30
41318;DHT22;27067;51.554;7.026;2023-04-15T08:37:36;16.30;90.20
41318;DHT22;27067;51.554;7.026;2023-04-15T08:40:02;16.30;90.20
41318;DHT22;27067;51.554;7.026;2023-04-15T08:42:31;16.30;90.20
41318;DHT22;27067;51.554;7.026;2023-04-15T08:45:03;16.30;90.20
41318;DHT22;27067;51.554;7.026;2023-04-15T08:47:30;16.30;90.20
41318;DHT22;27067;51.554;7.026;2023-04-15T08:49:57;16.30;90.20
41318;DHT22;27067;51.554;7.026;2023-04-15T08:52:26;16.30;90.20
41318;DHT22;27067;51.554;7.026;2023-04-15T08:54:56;16.30;90.30
41318;DHT22;27067;51.554;7.026;2023-04-15T08:57:26;16.20;90.30
41318;DHT22;27067;51.554;7.026;2023-04-15T08:59:55;16.30;90.30
41318;DHT22;27067;51.554;7.026;2023-04-15T09:02:22;16.20;90.30
41318;DHT22;27067;51.554;7.026;2023-04-15T09:04:48;16.20;90.30
41318;DHT22;27067;51.554;7.026;2023-04-15T09:07:14;16.20;90.40
41318;DHT22;27067;51.554;7.026;2023-04-15T09:09:40;16.20;90.40
41318;DHT22;27067;51.554;7.026;2023-04-15T09:12:07;16.20;90.50
41318;DHT22;27067;51.554;7.026;2023-04-15T09:14:33;16.20;90.50
41318;DHT22;27067;51.554;7.026;2023-04-15T09:17:03;16.20;90.50
41318;DHT22;27067;51.554;7.026;2023-04-15T09:19:29;16.20;90.40
41318;DHT22;27067;51.554;7.026;2023-04-15T09:21:57;16.20;90.40
41318;DHT22;27067;51.554;7.026;2023-04-15T09:24:23;16.20;90.40
41318;DHT22;27067;51.554;7.026;2023-04-15T09:26:53;16.20;90.40
41318;DHT22;27067;51.554;7.026;2023-04-15T09:29:25;16.20;90.40
41318;DHT22;27067;51.554;7.026;2023-04-15T09:31:51;16.20;90.40
41318;DHT22;27067;51.554;7.026;2023-04-15T09:34:17;16.20;90.40
41318;DHT22;27067;51.554;7.026;2023-04-15T09:39:12;16.10;90.40
41318;DHT22;27067;51.554;7.026;2023-04-15T09:41:38;16.20;90.40
41318;DHT22;27067;51.554;7.026;2023-04-15T09:44:05;16.20;90.40
41318;DHT22;27067;51.554;7.026;2023-04-15T09:46:44;16.10;90.40
41318;DHT22;27067;51.554;7.026;2023-04-15T09:49:11;16.20;90.40
41318;DHT22;27067;51.554;7.026;2023-04-15T09:51:37;16.10;90.40
41318;DHT22;27067;51.554;7.026;2023-04-15T09:54:03;16.10;90.40
41318;DHT22;27067;51.554;7.026;2023-04-15T09:56:37;16.10;90.40
41318;DHT22;27067;51.554;7.026;2023-04-15T09:59:06;16.10;90.50
41318;DHT22;27067;51.554;7.026;2023-04-15T10:01:33;16.10;90.50
41318;DHT22;27067;51.554;7.026;2023-04-15T10:04:04;16.10;90.50
41318;DHT22;27067;51.554;7.026;2023-04-15T10:06:30;16.10;90.50
41318;DHT22;27067;51.554;7.026;2023-04-15T10:08:57;16.10;90.50
41318;DHT22;27067;51.554;7.026;2023-04-15T10:11:23;16.00;90.50
41318;DHT22;27067;51.554;7.026;2023-04-15T10:13:50;16.00;90.60
41318;DHT22;27067;51.554;7.026;2023-04-15T10:16:19;16.10;90.50
41318;DHT22;27067;51.554;7.026;2023-04-15T10:18:50;16.00;90.50
41318;DHT22;27067;51.554;7.026;2023-04-15T10:21:20;16.00;90.50
41318;DHT22;27067;51.554;7.026;2023-04-15T10:23:47;16.00;90.60
41318;DHT22;27067;51.554;7.026;2023-04-15T10:26:13;16.00;90.60
41318;DHT22;27067;51.554;7.026;2023-04-15T10:28:45;16.00;90.70
41318;DHT22;27067;51.554;7.026;2023-04-15T10:31:13;16.00;90.70
41318;DHT22;27067;51.554;7.026;2023-04-15T10:33:43;16.00;90.80
41318;DHT22;27067;51.554;7.026;2023-04-15T10:36:13;16.10;90.80
41318;DHT22;27067;51.554;7.026;2023-04-15T10:38:50;16.10;90.80
41318;DHT22;27067;51.554;7.026;2023-04-15T10:41:23;16.10;90.70
41318;DHT22;27067;51.554;7.026;2023-04-15T10:43:55;16.10;90.70
41318;DHT22;27067;51.554;7.026;2023-04-15T10:48:52;16.10;90.70
41318;DHT22;27067;51.554;7.026;2023-04-15T10:51:29;16.10;90.60
41318;DHT22;27067;51.554;7.026;2023-04-15T10:53:57;16.10;90.60
41318;DHT22;27067;51.554;7.026;2023-04-15T10:56:29;16.10;90.60
41318;DHT22;27067;51.554;7.026;2023-04-15T10:59:00;16.10;90.60
41318;DHT22;27067;51.554;7.026;2023-04-15T11:01:52;16.10;90.60
41318;DHT22;27067;51.554;7.026;2023-04-15T11:04:56;16.10;90.60
41318;DHT22;27067;51.554;7.026;2023-04-15T11:07:50;16.10;90.60
41318;DHT22;27067;51.554;7.026;2023-04-15T11:12:43;16.00;90.60
41318;DHT22;27067;51.554;7.026;2023-04-15T11:15:31;16.00;90.60
41318;DHT22;27067;51.554;7.026;2023-04-15T11:17:59;16.00;90.60
41318;DHT22;27067;51.554;7.026;2023-04-15T11:20:33;16.10;90.70
41318;DHT22;27067;51.554;7.026;2023-04-15T11:22:58;16.00;90.60
41318;DHT22;27067;51.554;7.026;2023-04-15T11:25:29;16.00;90.60
41318;DHT22;27067;51.554;7.026;2023-04-15T11:27:58;16.00;90.90
41318;DHT22;27067;51.554;7.026;2023-04-15T11:30:25;16.00;90.70
41318;DHT22;27067;51.554;7.026;2023-04-15T11:33:00;16.00;90.70
41318;DHT22;27067;51.554;7.026;2023-04-15T11:35:33;15.90;90.70
41318;DHT22;27067;51.554;7.026;2023-04-15T11:38:26;15.90;90.80
41318;DHT22;27067;51.554;7.026;2023-04-15T11:40:52;15.90;90.70
41318;DHT22;27067;51.554;7.026;2023-04-15T11:43:24;16.00;90.70
41318;DHT22;27067;51.554;7.026;2023-04-15T11:46:01;15.90;90.70
41318;DHT22;27067;51.554;7.026;2023-04-15T11:48:35;15.90;90.70
41318;DHT22;27067;51.554;7.026;2023-04-15T11:51:01;15.90;90.80
41318;DHT22;27067;51.554;7.026;2023-04-15T11:53:43;15.90;90.80
41318;DHT22;27067;51.554;7.026;2023-04-15T11:56:16;15.90;91.10
41318;DHT22;27067;51.554;7.026;2023-04-15T11:58:42;15.90;90.80
41318;DHT22;27067;51.554;7.026;2023-04-15T12:01:09;15.90;90.90
41318;DHT22;27067;51.554;7.026;2023-04-15T12:03:42;15.90;91.20
41318;DHT22;27067;51.554;7.026;2023-04-15T12:08:54;16.00;91.00
41318;DHT22;27067;51.554;7.026;2023-04-15T12:14:08;16.00;90.90
41318;DHT22;27067;51.554;7.026;2023-04-15T12:16:36;16.00;90.90
41318;DHT22;27067;51.554;7.026;2023-04-15T12:19:12;16.10;90.90
41318;DHT22;27067;51.554;7.026;2023-04-15T12:21:41;16.10;90.80
41318;DHT22;27067;51.554;7.026;2023-04-15T12:24:10;16.10;90.80
41318;DHT22;27067;51.554;7.026;2023-04-15T12:29:10;16.10;90.80
41318;DHT22;27067;51.554;7.026;2023-04-15T12:31:45;16.10;90.80
41318;DHT22;27067;51.554;7.026;2023-04-15T12:34:11;16.10;90.70
41318;DHT22;27067;51.554;7.026;2023-04-15T12:36:36;16.00;90.70
41318;DHT22;27067;51.554;7.026;2023-04-15T12:39:03;16.10;90.70
41318;DHT22;27067;51.554;7.026;2023-04-15T12:41:29;16.10;90.70
41318;DHT22;27067;51.554;7.026;2023-04-15T12:43:55;16.10;90.70
41318;DHT22;27067;51.554;7.026;2023-04-15T12:46:21;16.10;90.70
41318;DHT22;27067;51.554;7.026;2023-04-15T12:48:46;16.10;90.70
41318;DHT22;27067;51.554;7.026;2023-04-15T12:51:13;16.10;90.70
41318;DHT22;27067;51.554;7.026;2023-04-15T12:53:38;16.10;90.70
41318;DHT22;27067;51.554;7.026;2023-04-15T12:56:04;16.00;90.70
41318;DHT22;27067;51.554;7.026;2023-04-15T12:58:31;16.00;90.70
41318;DHT22;27067;51.554;7.026;2023-04-15T13:00:56;16.00;90.70
41318;DHT22;27067;51.554;7.026;2023-04-15T13:03:22;16.00;90.80
41318;DHT22;27067;51.554;7.026;2023-04-15T13:05:48;16.00;90.70
41318;DHT22;27067;51.554;7.026;2023-04-15T13:08:13;16.00;90.80
41318;DHT22;27067;51.554;7.026;2023-04-15T13:10:39;16.00;90.80
41318;DHT22;27067;51.554;7.026;2023-04-15T13:13:07;16.00;90.80
41318;DHT22;27067;51.554;7.026;2023-04-15T13:15:33;16.00;90.80
41318;DHT22;27067;51.554;7.026;2023-04-15T13:17:59;15.90;90.80
41318;DHT22;27067;51.554;7.026;2023-04-15T13:20:25;15.90;90.80
41318;DHT22;27067;51.554;7.026;2023-04-15T13:22:52;15.90;90.80
41318;DHT22;27067;51.554;7.026;2023-04-15T13:25:18;15.90;90.80
41318;DHT22;27067;51.554;7.026;2023-04-15T13:27:44;15.90;90.90
41318;DHT22;27067;51.554;7.026;2023-04-15T13:30:10;15.90;90.90
41318;DHT22;27067;51.554;7.026;2023-04-15T13:32:36;15.90;90.90
41318;DHT22;27067;51.554;7.026;2023-04-15T13:35:01;15.90;91.00
41318;DHT22;27067;51.554;7.026;2023-04-15T13:37:28;15.90;91.00
41318;DHT22;27067;51.554;7.026;2023-04-15T13:39:55;15.90;91.00
41318;DHT22;27067;51.554;7.026;2023-04-15T13:42:21;15.90;91.00
41318;DHT22;27067;51.554;7.026;2023-04-15T13:44:49;15.90;91.00
41318;DHT22;27067;51.554;7.026;2023-04-15T13:47:16;15.90;91.00
41318;DHT22;27067;51.554;7.026;2023-04-15T13:49:42;16.00;91.00
41318;DHT22;27067;51.554;7.026;2023-04-15T13:52:08;16.00;91.00
41318;DHT22;27067;51.554;7.026;2023-04-15T13:54:33;15.90;91.00
41318;DHT22;27067;51.554;7.026;2023-04-15T13:57:00;15.90;91.00
41318;DHT22;27067;51.554;7.026;2023-04-15T13:59:26;16.00;91.00
41318;DHT22;27067;51.554;7.026;2023-04-15T14:01:52;15.90;90.90
41318;DHT22;27067;51.554;7.026;2023-04-15T14:04:17;16.00;90.90
41318;DHT22;27067;51.554;7.026;2023-04-15T14:06:43;16.00;90.90
41318;DHT22;27067;51.554;7.026;2023-04-15T14:09:09;16.00;90.90
41318;DHT22;27067;51.554;7.026;2023-04-15T14:11:37;16.00;90.90
41318;DHT22;27067;51.554;7.026;2023-04-15T14:14:04;15.90;90.90
41318;DHT22;27067;51.554;7.026;2023-04-15T14:16:32;16.00;90.90
41318;DHT22;27067;51.554;7.026;2023-04-15T14:18:58;15.90;90.90
41318;DHT22;27067;51.554;7.026;2023-04-15T14:21:24;15.90;90.90
41318;DHT22;27067;51.554;7.026;2023-04-15T14:23:50;15.90;90.90
41318;DHT22;27067;51.554;7.026;2023-04-15T14:26:16;15.90;90.90
41318;DHT22;27067;51.554;7.026;2023-04-15T14:28:42;15.90;90.90
41318;DHT22;27067;51.554;7.026;2023-04-15T14:31:09;15.90;90.90
41318;DHT22;27067;51.554;7.026;2023-04-15T14:33:35;15.90;90.90
41318;DHT22;27067;51.554;7.026;2023-04-15T14:36:01;15.90;90.90
41318;DHT22;27067;51.554;7.026;2023-04-15T14:38:26;15.90;91.00
41318;DHT22;27067;51.554;7.026;2023-04-15T14:40:52;15.80;90.90
41318;DHT22;27067;51.554;7.026;2023-04-15T14:43:20;15.90;91.00
41318;DHT22;27067;51.554;7.026;2023-04-15T14:45:46;15.90;91.00
41318;DHT22;27067;51.554;7.026;2023-04-15T14:48:12;15.90;91.00
41318;DHT22;27067;51.554;7.026;2023-04-15T14:50:38;15.90;91.00
41318;DHT22;27067;51.554;7.026;2023-04-15T14:53:04;15.90;90.90
41318;DHT22;27067;51.554;7.026;2023-04-15T14:55:30;15.80;90.90
41318;DHT22;27067;51.554;7.026;2023-04-15T14:57:56;15.90;90.90
41318;DHT22;27067;51.554;7.026;2023-04-15T15:00:21;15.90;91.00
41318;DHT22;27067;51.554;7.026;2023-04-15T15:02:47;15.90;91.10
41318;DHT22;27067;51.554;7.026;2023-04-15T15:05:13;15.90;91.20
41318;DHT22;27067;51.554;7.026;2023-04-15T15:07:39;15.90;91.20
41318;DHT22;27067;51.554;7.026;2023-04-15T15:10:07;15.90;91.30
41318;DHT22;27067;51.554;7.026;2023-04-15T15:12:33;15.90;91.30
41318;DHT22;27067;51.554;7.026;2023-04-15T15:14:59;15.90;91.20
41318;DHT22;27067;51.554;7.026;2023-04-15T15:17:28;16.00;91.20
41318;DHT22;27067;51.554;7.026;2023-04-15T15:19:54;16.40;91.20
41318;DHT22;27067;51.554;7.026;2023-04-15T15:22:21;16.10;91.10
41318;DHT22;27067;51.554;7.026;2023-04-15T15:24:46;16.10;91.00
41318;DHT22;27067;51.554;7.026;2023-04-15T15:27:12;16.20;91.00
41318;DHT22;27067;51.554;7.026;2023-04-15T15:29:38;16.10;90.90
41318;DHT22;27067;51.554;7.026;2023-04-15T15:32:04;16.10;91.00
41318;DHT22;27067;51.554;7.026;2023-04-15T15:34:30;16.10;90.80
41318;DHT22;27067;51.554;7.026;2023-04-15T15:36:55;16.20;90.80
41318;DHT22;27067;51.554;7.026;2023-04-15T15:39:22;16.10;90.80
41318;DHT22;27067;51.554;7.026;2023-04-15T15:41:49;16.10;90.80
41318;DHT22;27067;51.554;7.026;2023-04-15T15:44:14;16.20;90.80
41318;DHT22;27067;51.554;7.026;2023-04-15T15:46:40;16.10;90.80